Time,TemperatureF,DewpointF,PressureIn,WindDirection,WindDirectionDegrees,WindSpeedMPH,WindSpeedGustMPH,Humidity,HourlyPrecipIn,Conditions,Clouds,dailyrainin,SoftwareType,DateUTC
2013-01-08 00:02:00,41.5,21.1,28.73,NNE,22,3.6,5.1,44,0.00,,,0.00,open2300-1.11,2013-01-07 22:02:00,
2013-01-08 00:07:00,41.4,20.9,28.73,NNW,337,3.4,3.6,44,0.00,,,0.00,open2300-1.11,2013-01-07 22:07:00,
2013-01-08 00:12:00,41.4,20.9,28.73,NE,45,1.3,4.7,44,0.00,,,0.00,open2300-1.11,2013-01-07 22:12:00,
2013-01-08 00:17:00,41.2,20.8,28.73,NE,45,4.5,4.5,44,0.00,,,0.00,open2300-1.11,2013-01-07 22:17:00,
2013-01-08 00:22:00,41.2,20.8,28.72,NNE,22,2.0,4.5,44,0.00,,,0.00,open2300-1.11,2013-01-07 22:22:00,
2013-01-08 00:27:00,41.2,20.8,28.73,NNE,22,3.4,3.4,44,0.00,,,0.00,open2300-1.11,2013-01-07 22:27:00,
2013-01-08 00:32:00,41.0,20.6,28.73,NNE,22,2.2,4.0,44,0.00,,,0.00,open2300-1.11,2013-01-07 22:32:00,
2013-01-08 00:37:00,41.0,20.6,28.74,NE,45,2.5,2.5,44,0.00,,,0.00,open2300-1.11,2013-01-07 22:37:00,
2013-01-08 00:47:00,40.8,20.4,28.75,NNE,22,4.2,4.2,44,0.00,,,0.00,open2300-1.11,2013-01-07 22:47:00,
2013-01-08 00:52:00,40.8,20.4,28.75,North,0,0.0,4.2,44,0.00,,,0.00,open2300-1.11,2013-01-07 22:52:00,
2013-01-08 01:02:00,40.8,21.5,28.75,NNE,22,0.0,3.8,46,0.00,,,0.00,open2300-1.11,2013-01-07 23:02:00,
2013-01-08 01:07:00,40.8,21.5,28.76,NNE,22,3.8,3.8,46,0.00,,,0.00,open2300-1.11,2013-01-07 23:07:00,
2013-01-08 01:12:00,40.6,21.8,28.76,NE,45,0.0,3.8,47,0.00,,,0.00,open2300-1.11,2013-01-07 23:12:00,
2013-01-08 01:17:00,40.6,22.4,28.76,NNE,22,2.0,2.0,48,0.00,,,0.00,open2300-1.11,2013-01-07 23:17:00,
2013-01-08 01:22:00,40.6,22.9,28.77,NNE,22,0.0,2.0,49,0.00,,,0.00,open2300-1.11,2013-01-07 23:22:00,
2013-01-08 01:32:00,40.5,23.7,28.77,NNE,22,0.0,0.0,51,0.00,,,0.00,open2300-1.11,2013-01-07 23:32:00,
2013-01-08 01:37:00,40.3,24.0,28.77,North,0,0.0,1.6,52,0.00,,,0.00,open2300-1.11,2013-01-07 23:37:00,
2013-01-08 01:47:00,40.1,25.1,28.77,NE,45,0.0,4.2,55,0.00,,,0.00,open2300-1.11,2013-01-07 23:47:00,
2013-01-08 01:57:00,39.7,26.5,28.77,NNE,22,4.0,6.0,59,0.00,,,0.00,open2300-1.11,2013-01-07 23:57:00,
2013-01-08 02:07:00,39.2,26.4,28.77,NE,45,1.6,4.9,60,0.00,,,0.00,open2300-1.11,2013-01-08 00:07:00,
2013-01-08 02:12:00,39.0,26.3,28.78,NE,45,2.5,2.5,60,0.00,,,0.00,open2300-1.11,2013-01-08 00:12:00,
2013-01-08 02:22:00,38.8,26.9,28.79,NE,45,0.0,6.5,62,0.00,,,0.00,open2300-1.11,2013-01-08 00:22:00,
2013-01-08 02:27:00,38.8,27.2,28.79,NE,45,3.8,3.8,63,0.00,,,0.00,open2300-1.11,2013-01-08 00:27:00,
2013-01-08 02:37:00,38.5,26.9,28.80,NNE,22,4.0,4.0,63,0.00,,,0.00,open2300-1.11,2013-01-08 00:37:00,
2013-01-08 02:42:00,38.5,27.3,28.79,NNE,22,1.3,4.0,64,0.00,,,0.00,open2300-1.11,2013-01-08 00:42:00,
2013-01-08 02:52:00,38.1,27.7,28.80,NNE,22,0.0,2.5,66,0.00,,,0.00,open2300-1.11,2013-01-08 00:52:00,
2013-01-08 02:57:00,38.1,28.1,28.81,NE,45,0.0,3.4,67,0.00,,,0.00,open2300-1.11,2013-01-08 00:57:00,
2013-01-08 03:07:00,37.6,28.7,28.81,NE,45,2.2,3.6,70,0.00,,,0.00,open2300-1.11,2013-01-08 01:07:00,
2013-01-08 03:12:00,37.2,28.7,28.80,NNE,22,0.0,2.2,71,0.00,,,0.00,open2300-1.11,2013-01-08 01:12:00,
2013-01-08 03:22:00,37.0,28.9,28.80,NNW,337,0.0,0.0,72,0.00,,,0.00,open2300-1.11,2013-01-08 01:22:00,
2013-01-08 03:27:00,36.9,29.0,28.81,NNE,22,4.9,4.9,73,0.00,,,0.00,open2300-1.11,2013-01-08 01:27:00,
2013-01-08 03:33:00,36.9,29.0,28.80,NE,45,0.0,4.9,73,0.00,,,0.00,open2300-1.11,2013-01-08 01:33:00,
2013-01-08 03:42:00,36.7,28.8,28.81,North,0,0.0,0.0,73,0.00,,,0.00,open2300-1.11,2013-01-08 01:42:00,
2013-01-08 03:47:00,36.7,28.8,28.81,NNE,22,0.0,0.0,73,0.00,,,0.00,open2300-1.11,2013-01-08 01:47:00,
2013-01-08 03:52:00,36.7,28.8,28.81,NE,45,0.0,0.0,73,0.00,,,0.00,open2300-1.11,2013-01-08 01:52:00,
2013-01-08 04:02:00,36.7,28.5,28.81,NNE,22,0.0,0.0,72,0.00,,,0.00,open2300-1.11,2013-01-08 02:02:00,
2013-01-08 04:07:00,36.7,28.5,28.81,NNE,22,4.2,4.2,72,0.00,,,0.00,open2300-1.11,2013-01-08 02:07:00,
2013-01-08 04:12:00,36.5,28.6,28.81,NNE,22,0.0,4.2,73,0.00,,,0.00,open2300-1.11,2013-01-08 02:12:00,
2013-01-08 04:17:00,36.5,28.6,28.81,NNE,22,0.0,0.0,73,0.00,,,0.00,open2300-1.11,2013-01-08 02:17:00,
2013-01-08 04:22:00,36.5,28.6,28.82,NE,45,0.0,0.0,73,0.00,,,0.00,open2300-1.11,2013-01-08 02:22:00,
2013-01-08 04:27:00,36.3,28.8,28.82,NNE,22,0.0,0.0,74,0.00,,,0.00,open2300-1.11,2013-01-08 02:27:00,
2013-01-08 04:32:00,36.1,28.6,28.82,NE,45,0.0,0.0,74,0.00,,,0.00,open2300-1.11,2013-01-08 02:32:00,
2013-01-08 04:37:00,36.0,28.8,28.82,NNE,22,0.0,0.0,75,0.00,,,0.00,open2300-1.11,2013-01-08 02:37:00,
2013-01-08 04:47:00,35.4,28.5,28.82,NNE,22,1.6,1.6,76,0.00,,,0.00,open2300-1.11,2013-01-08 02:47:00,
2013-01-08 04:59:00,35.2,28.7,28.82,NNE,22,0.0,1.6,77,0.00,,,0.00,open2300-1.11,2013-01-08 02:59:00,
2013-01-08 05:07:00,35.2,28.7,28.82,NNE,22,0.0,0.0,77,0.00,,,0.00,open2300-1.11,2013-01-08 03:07:00,
2013-01-08 05:17:00,35.2,28.7,28.82,NE,45,0.0,0.0,77,0.00,,,0.00,open2300-1.11,2013-01-08 03:17:00,
2013-01-08 05:27:00,34.9,28.3,28.82,NNE,22,1.8,2.9,77,0.00,,,0.00,open2300-1.11,2013-01-08 03:27:00,
2013-01-08 05:32:00,34.9,28.3,28.82,NE,45,0.0,1.8,77,0.00,,,0.00,open2300-1.11,2013-01-08 03:32:00,
2013-01-08 05:37:00,34.9,28.3,28.82,NNE,22,2.7,2.7,77,0.00,,,0.00,open2300-1.11,2013-01-08 03:37:00,
2013-01-08 05:42:00,34.9,28.3,28.82,NE,45,0.0,2.7,77,0.00,,,0.00,open2300-1.11,2013-01-08 03:42:00,
2013-01-08 05:47:00,34.7,28.1,28.82,NNE,22,1.8,1.8,77,0.00,,,0.00,open2300-1.11,2013-01-08 03:47:00,
2013-01-08 05:52:00,34.7,28.1,28.83,NNE,22,0.0,1.8,77,0.00,,,0.00,open2300-1.11,2013-01-08 03:52:00,
2013-01-08 05:59:00,34.7,28.1,28.83,NNE,22,2.0,2.0,77,0.00,,,0.00,open2300-1.11,2013-01-08 03:59:00,
2013-01-08 06:07:00,34.7,28.1,28.83,ESE,112,0.0,3.1,77,0.00,,,0.00,open2300-1.11,2013-01-08 04:07:00,
2013-01-08 06:13:00,34.7,28.1,28.83,NNE,22,0.0,0.0,77,0.00,,,0.00,open2300-1.11,2013-01-08 04:13:00,
2013-01-08 06:22:00,34.5,28.0,28.83,NE,45,0.0,0.0,77,0.00,,,0.00,open2300-1.11,2013-01-08 04:22:00,
2013-01-08 06:27:00,34.5,28.0,28.84,NNE,22,0.0,4.9,77,0.00,,,0.00,open2300-1.11,2013-01-08 04:27:00,
2013-01-08 06:37:00,34.7,28.1,28.84,NNE,22,0.0,0.2,77,0.00,,,0.00,open2300-1.11,2013-01-08 04:37:00,
2013-01-08 06:42:00,34.7,28.1,28.84,NE,45,0.0,2.5,77,0.00,,,0.00,open2300-1.11,2013-01-08 04:42:00,
2013-01-08 06:47:00,34.7,27.8,28.84,NE,45,0.0,1.6,76,0.00,,,0.00,open2300-1.11,2013-01-08 04:47:00,
2013-01-08 06:57:00,34.7,28.1,28.85,North,0,5.4,5.4,77,0.00,,,0.00,open2300-1.11,2013-01-08 04:57:00,
2013-01-08 07:07:00,34.3,28.1,28.85,NNE,22,0.0,0.0,78,0.00,,,0.00,open2300-1.11,2013-01-08 05:07:00,
2013-01-08 07:12:00,34.3,28.1,28.85,NNE,22,0.0,2.0,78,0.00,,,0.00,open2300-1.11,2013-01-08 05:12:00,
2013-01-08 07:17:00,34.3,28.1,28.85,NNE,22,0.0,0.0,78,0.00,,,0.00,open2300-1.11,2013-01-08 05:17:00,
2013-01-08 07:22:00,34.3,28.1,28.86,NE,45,0.0,0.0,78,0.00,,,0.00,open2300-1.11,2013-01-08 05:22:00,
2013-01-08 07:27:00,34.3,27.8,28.86,NNE,22,0.0,7.4,77,0.00,,,0.00,open2300-1.11,2013-01-08 05:27:00,
2013-01-08 07:32:00,34.3,27.8,28.86,ENE,67,2.0,3.4,77,0.00,,,0.00,open2300-1.11,2013-01-08 05:32:00,
2013-01-08 07:37:00,34.3,27.8,28.86,NE,45,0.0,2.0,77,0.00,,,0.00,open2300-1.11,2013-01-08 05:37:00,
2013-01-08 07:42:00,34.3,27.8,28.86,NE,45,4.7,4.7,77,0.00,,,0.00,open2300-1.11,2013-01-08 05:42:00,
2013-01-08 07:47:00,34.3,28.1,28.86,NNE,22,0.0,4.7,78,0.00,,,0.00,open2300-1.11,2013-01-08 05:47:00,
2013-01-08 07:52:00,34.3,28.1,28.86,NE,45,0.0,0.0,78,0.00,,,0.00,open2300-1.11,2013-01-08 05:52:00,
2013-01-08 07:57:00,34.3,28.1,28.86,North,0,0.0,0.0,78,0.00,,,0.00,open2300-1.11,2013-01-08 05:57:00,
2013-01-08 08:07:00,34.3,27.8,28.86,NE,45,2.5,2.5,77,0.00,,,0.00,open2300-1.11,2013-01-08 06:07:00,
2013-01-08 08:12:00,34.3,27.8,28.87,NNE,22,1.3,2.5,77,0.00,,,0.00,open2300-1.11,2013-01-08 06:12:00,
2013-01-08 08:22:00,34.3,27.8,28.87,NNE,22,0.0,1.6,77,0.00,,,0.00,open2300-1.11,2013-01-08 06:22:00,
2013-01-08 08:32:00,34.3,27.8,28.88,NNE,22,0.0,0.0,77,0.00,,,0.00,open2300-1.11,2013-01-08 06:32:00,
2013-01-08 08:37:00,34.3,27.8,28.88,NNE,22,0.0,0.0,77,0.00,,,0.00,open2300-1.11,2013-01-08 06:37:00,
2013-01-08 08:42:00,34.3,27.8,28.88,NNE,22,1.8,2.9,77,0.00,,,0.00,open2300-1.11,2013-01-08 06:42:00,
2013-01-08 08:47:00,34.3,27.8,28.88,NNE,22,2.7,3.1,77,0.00,,,0.00,open2300-1.11,2013-01-08 06:47:00,
2013-01-08 08:52:00,34.5,27.6,28.88,NNE,22,0.0,2.7,76,0.00,,,0.00,open2300-1.11,2013-01-08 06:52:00,
2013-01-08 09:02:00,34.5,27.3,28.89,NE,45,0.0,2.5,75,0.00,,,0.00,open2300-1.11,2013-01-08 07:02:00,
2013-01-08 09:07:00,34.5,27.3,28.89,NE,45,2.9,2.9,75,0.00,,,0.00,open2300-1.11,2013-01-08 07:07:00,
2013-01-08 09:12:00,34.7,27.5,28.89,NE,45,0.0,3.4,75,0.00,,,0.00,open2300-1.11,2013-01-08 07:12:00,
2013-01-08 09:17:00,34.5,27.3,28.90,NNE,22,0.0,0.0,75,0.00,,,0.00,open2300-1.11,2013-01-08 07:17:00,
2013-01-08 09:22:00,34.5,27.3,28.90,NNE,22,0.0,0.0,75,0.00,,,0.00,open2300-1.11,2013-01-08 07:22:00,
2013-01-08 09:27:00,34.5,27.3,28.90,WNW,292,0.0,1.8,75,0.00,,,0.00,open2300-1.11,2013-01-08 07:27:00,
2013-01-08 09:32:00,34.5,27.3,28.90,NNE,22,0.0,0.0,75,0.00,,,0.00,open2300-1.11,2013-01-08 07:32:00,
2013-01-08 09:37:00,34.7,27.5,28.90,NNE,22,0.0,0.0,75,0.00,,,0.00,open2300-1.11,2013-01-08 07:37:00,
2013-01-08 09:42:00,34.9,27.7,28.90,NNE,22,0.0,3.1,75,0.00,,,0.00,open2300-1.11,2013-01-08 07:42:00,
2013-01-08 09:47:00,35.2,28.0,28.90,NNE,22,0.0,0.0,75,0.00,,,0.00,open2300-1.11,2013-01-08 07:47:00,
2013-01-08 09:52:00,35.2,28.0,28.90,NE,45,0.0,0.0,75,0.00,,,0.00,open2300-1.11,2013-01-08 07:52:00,
2013-01-08 10:02:00,35.4,27.9,28.90,NNE,22,0.0,0.0,74,0.00,,,0.00,open2300-1.11,2013-01-08 08:02:00,
2013-01-08 10:12:00,35.8,27.6,28.91,NNE,22,2.0,3.8,72,0.00,,,0.00,open2300-1.11,2013-01-08 08:12:00,
2013-01-08 10:22:00,36.0,27.5,28.91,NNE,22,4.9,4.9,71,0.00,,,0.00,open2300-1.11,2013-01-08 08:22:00,
2013-01-08 10:27:00,36.1,27.6,28.91,NE,45,1.3,4.9,71,0.00,,,0.00,open2300-1.11,2013-01-08 08:27:00,
2013-01-08 10:37:00,36.1,28.0,28.91,NNE,22,2.0,2.0,72,0.00,,,0.00,open2300-1.11,2013-01-08 08:37:00,
2013-01-08 10:47:00,36.3,28.1,28.92,NNE,22,3.4,3.4,72,0.00,,,0.00,open2300-1.11,2013-01-08 08:47:00,
2013-01-08 10:52:00,36.3,28.1,28.91,NNE,22,0.0,3.4,72,0.00,,,0.00,open2300-1.11,2013-01-08 08:52:00,
2013-01-08 10:57:00,36.3,28.5,28.91,North,0,0.0,0.0,73,0.00,,,0.00,open2300-1.11,2013-01-08 08:57:00,
2013-01-08 11:02:00,36.3,28.1,28.91,NE,45,0.0,0.0,72,0.00,,,0.00,open2300-1.11,2013-01-08 09:02:00,
2013-01-08 11:07:00,36.5,28.3,28.92,NNE,22,0.0,1.3,72,0.00,,,0.00,open2300-1.11,2013-01-08 09:07:00,
2013-01-08 11:17:00,36.7,28.5,28.92,NNE,22,0.0,3.4,72,0.00,,,0.00,open2300-1.11,2013-01-08 09:17:00,
2013-01-08 11:22:00,36.9,28.4,28.92,NNE,22,0.0,0.0,71,0.00,,,0.00,open2300-1.11,2013-01-08 09:22:00,
2013-01-08 11:27:00,37.0,28.5,28.91,NNE,22,0.0,2.9,71,0.00,,,0.00,open2300-1.11,2013-01-08 09:27:00,
2013-01-08 11:32:00,36.9,28.4,28.91,NNE,22,0.0,0.0,71,0.00,,,0.00,open2300-1.11,2013-01-08 09:32:00,
2013-01-08 11:42:00,36.7,28.5,28.91,NNE,22,0.0,0.0,72,0.00,,,0.00,open2300-1.11,2013-01-08 09:42:00,
2013-01-08 11:47:00,36.5,28.3,28.91,North,0,0.0,0.0,72,0.00,,,0.00,open2300-1.11,2013-01-08 09:47:00,
2013-01-08 11:52:00,36.3,28.1,28.91,NNE,22,0.0,0.0,72,0.00,,,0.00,open2300-1.11,2013-01-08 09:52:00,
2013-01-08 11:57:00,36.1,28.3,28.91,NNE,22,0.0,0.0,73,0.00,,,0.00,open2300-1.11,2013-01-08 09:57:00,
2013-01-08 12:02:00,36.0,28.1,28.91,NNE,22,0.0,0.0,73,0.00,,,0.00,open2300-1.11,2013-01-08 10:02:00,
2013-01-08 12:07:00,35.8,28.3,28.91,NNE,22,0.0,0.0,74,0.00,,,0.00,open2300-1.11,2013-01-08 10:07:00,
2013-01-08 12:12:00,35.8,28.6,28.91,North,0,6.3,6.3,75,0.00,,,0.00,open2300-1.11,2013-01-08 10:12:00,
2013-01-08 12:17:00,35.4,28.2,28.91,North,0,0.0,6.3,75,0.00,,,0.00,open2300-1.11,2013-01-08 10:17:00,
2013-01-08 12:27:00,35.1,28.5,28.90,NNE,22,0.0,0.0,77,0.00,,,0.00,open2300-1.11,2013-01-08 10:27:00,
2013-01-08 12:32:00,34.9,28.3,28.90,NNE,22,0.0,0.0,77,0.00,,,0.00,open2300-1.11,2013-01-08 10:32:00,
2013-01-08 12:37:00,35.2,28.7,28.90,NNE,22,0.0,0.0,77,0.00,,,0.00,open2300-1.11,2013-01-08 10:37:00,
2013-01-08 12:42:00,35.2,28.7,28.90,NNE,22,0.0,0.0,77,0.00,,,0.00,open2300-1.11,2013-01-08 10:42:00,
2013-01-08 12:47:00,35.2,29.0,28.90,NE,45,4.2,4.2,78,0.00,,,0.00,open2300-1.11,2013-01-08 10:47:00,
2013-01-08 12:52:00,35.2,28.7,28.90,NNE,22,0.0,4.2,77,0.00,,,0.00,open2300-1.11,2013-01-08 10:52:00,
2013-01-08 13:02:00,35.4,28.9,28.90,NNE,22,0.0,0.0,77,0.00,,,0.00,open2300-1.11,2013-01-08 11:02:00,
2013-01-08 13:07:00,35.8,29.2,28.90,NE,45,0.0,0.0,77,0.00,,,0.00,open2300-1.11,2013-01-08 11:07:00,
2013-01-08 13:22:00,35.4,28.9,28.89,NNE,22,0.0,0.0,77,0.00,,,0.00,open2300-1.11,2013-01-08 11:22:00,
2013-01-08 13:27:00,35.2,28.7,28.90,North,0,0.0,0.0,77,0.00,,,0.00,open2300-1.11,2013-01-08 11:27:00,
2013-01-08 13:37:00,34.7,28.5,28.90,North,0,0.0,0.0,78,0.00,,,0.00,open2300-1.11,2013-01-08 11:37:00,
2013-01-08 13:47:00,34.5,28.6,28.90,SW,225,0.0,0.0,79,0.00,,,0.00,open2300-1.11,2013-01-08 11:47:00,
2013-01-08 13:52:00,34.7,28.8,28.90,NNE,22,0.0,0.0,79,0.00,,,0.00,open2300-1.11,2013-01-08 11:52:00,
2013-01-08 14:02:00,34.9,29.3,28.89,NNE,22,0.0,0.0,80,0.00,,,0.00,open2300-1.11,2013-01-08 12:02:00,
2013-01-08 14:07:00,34.9,29.3,28.89,NNE,22,0.0,0.0,80,0.00,,,0.00,open2300-1.11,2013-01-08 12:07:00,
2013-01-08 14:17:00,35.4,29.5,28.89,NNE,22,1.6,1.6,79,0.00,,,0.00,open2300-1.11,2013-01-08 12:17:00,
2013-01-08 14:22:00,35.4,29.2,28.89,NNE,22,1.8,1.8,78,0.00,,,0.00,open2300-1.11,2013-01-08 12:22:00,
2013-01-08 14:32:00,35.8,29.2,28.90,NNE,22,0.0,0.0,77,0.00,,,0.00,open2300-1.11,2013-01-08 12:32:00,
2013-01-08 14:37:00,36.1,29.3,28.89,NNE,22,0.0,0.0,76,0.00,,,0.00,open2300-1.11,2013-01-08 12:37:00,
2013-01-08 14:47:00,36.1,28.9,28.89,NNE,22,1.1,1.1,75,0.00,,,0.00,open2300-1.11,2013-01-08 12:47:00,
2013-01-08 14:52:00,36.1,28.9,28.89,NE,45,0.0,1.1,75,0.00,,,0.00,open2300-1.11,2013-01-08 12:52:00,
2013-01-08 15:02:00,36.1,28.9,28.90,NNE,22,0.0,2.9,75,0.00,,,0.00,open2300-1.11,2013-01-08 13:02:00,
2013-01-08 15:07:00,36.1,28.9,28.90,NNE,22,3.6,3.6,75,0.00,,,0.00,open2300-1.11,2013-01-08 13:07:00,
2013-01-08 15:17:00,36.1,28.9,28.89,NNE,22,0.0,0.0,75,0.00,,,0.00,open2300-1.11,2013-01-08 13:17:00,
2013-01-08 15:22:00,36.0,28.4,28.90,NNE,22,0.0,0.0,74,0.00,,,0.00,open2300-1.11,2013-01-08 13:22:00,
2013-01-08 15:32:00,36.0,28.4,28.90,NNE,22,0.0,0.0,74,0.00,,,0.00,open2300-1.11,2013-01-08 13:32:00,
2013-01-08 15:37:00,36.0,28.4,28.90,North,0,0.0,0.0,74,0.00,,,0.00,open2300-1.11,2013-01-08 13:37:00,
2013-01-08 15:47:00,36.3,28.8,28.90,NNE,22,0.0,0.0,74,0.00,,,0.00,open2300-1.11,2013-01-08 13:47:00,
2013-01-08 15:52:00,36.3,28.8,28.90,NNE,22,0.0,0.0,74,0.00,,,0.00,open2300-1.11,2013-01-08 13:52:00,
2013-01-08 16:02:00,36.7,28.8,28.89,NNE,22,0.0,0.0,73,0.00,,,0.00,open2300-1.11,2013-01-08 14:02:00,
2013-01-08 16:07:00,36.7,28.8,28.89,NNE,22,0.0,0.0,73,0.00,,,0.00,open2300-1.11,2013-01-08 14:07:00,
2013-01-08 16:12:00,36.7,28.5,28.90,North,0,0.0,0.0,72,0.00,,,0.00,open2300-1.11,2013-01-08 14:12:00,
2013-01-08 16:22:00,36.7,28.2,28.90,NE,45,0.0,0.0,71,0.00,,,0.00,open2300-1.11,2013-01-08 14:22:00,
2013-01-08 16:27:00,36.3,27.5,28.90,NNE,22,0.0,0.0,70,0.00,,,0.00,open2300-1.11,2013-01-08 14:27:00,
2013-01-08 16:32:00,36.3,27.5,28.90,NNE,22,0.0,0.0,70,0.00,,,0.00,open2300-1.11,2013-01-08 14:32:00,
2013-01-08 16:42:00,36.0,26.8,28.90,NNE,22,4.7,4.7,69,0.00,,,0.00,open2300-1.11,2013-01-08 14:42:00,
2013-01-08 16:47:00,36.0,26.8,28.90,NNE,22,0.0,4.7,69,0.00,,,0.00,open2300-1.11,2013-01-08 14:47:00,
2013-01-08 16:52:00,35.8,26.6,28.90,NNE,22,0.0,0.0,69,0.00,,,0.00,open2300-1.11,2013-01-08 14:52:00,
2013-01-08 17:02:00,36.1,26.6,28.91,NE,45,0.0,0.0,68,0.00,,,0.00,open2300-1.11,2013-01-08 15:02:00,
2013-01-08 17:07:00,36.1,26.6,28.91,NNE,22,0.0,1.1,68,0.00,,,0.00,open2300-1.11,2013-01-08 15:07:00,
2013-01-08 17:12:00,35.8,26.2,28.90,NNE,22,0.0,0.0,68,0.00,,,0.00,open2300-1.11,2013-01-08 15:12:00,
2013-01-08 17:22:00,35.8,26.6,28.90,NNE,22,0.0,0.0,69,0.00,,,0.00,open2300-1.11,2013-01-08 15:22:00,
2013-01-08 17:27:00,35.4,26.2,28.91,NNE,22,0.0,0.0,69,0.00,,,0.00,open2300-1.11,2013-01-08 15:27:00,
2013-01-08 17:32:00,35.4,26.2,28.91,NE,45,0.0,0.0,69,0.00,,,0.00,open2300-1.11,2013-01-08 15:32:00,
2013-01-08 17:37:00,35.4,26.2,28.91,NE,45,0.0,0.0,69,0.00,,,0.00,open2300-1.11,2013-01-08 15:37:00,
2013-01-08 17:47:00,35.2,26.1,28.91,NE,45,0.0,0.0,69,0.00,,,0.00,open2300-1.11,2013-01-08 15:47:00,
2013-01-08 17:52:00,35.2,26.1,28.91,NE,45,0.0,0.0,69,0.00,,,0.00,open2300-1.11,2013-01-08 15:52:00,
2013-01-08 17:57:00,35.2,26.1,28.91,NNE,22,0.0,0.0,69,0.00,,,0.00,open2300-1.11,2013-01-08 15:57:00,
2013-01-08 18:02:00,35.2,25.7,28.91,NNE,22,0.0,0.0,68,0.00,,,0.00,open2300-1.11,2013-01-08 16:02:00,
2013-01-08 18:08:00,35.1,25.5,28.91,NNE,22,0.0,0.0,68,0.00,,,0.00,open2300-1.11,2013-01-08 16:08:00,
2013-01-08 18:17:00,34.9,25.0,28.92,NNE,22,0.0,0.0,67,0.00,,,0.00,open2300-1.11,2013-01-08 16:17:00,
2013-01-08 18:27:00,35.2,25.3,28.92,NNE,22,0.0,0.0,67,0.00,,,0.00,open2300-1.11,2013-01-08 16:27:00,
2013-01-08 18:32:00,35.2,25.3,28.92,NNE,22,0.0,0.0,67,0.00,,,0.00,open2300-1.11,2013-01-08 16:32:00,
2013-01-08 18:42:00,35.1,25.2,28.92,SW,225,0.0,0.0,67,0.00,,,0.00,open2300-1.11,2013-01-08 16:42:00,
2013-01-08 18:47:00,34.9,25.0,28.92,NNE,22,0.0,0.0,67,0.00,,,0.00,open2300-1.11,2013-01-08 16:47:00,
2013-01-08 18:52:00,34.9,25.0,28.92,NNE,22,0.0,0.0,67,0.00,,,0.00,open2300-1.11,2013-01-08 16:52:00,
2013-01-08 18:57:00,34.9,25.3,28.93,NNE,22,0.0,0.0,68,0.00,,,0.00,open2300-1.11,2013-01-08 16:57:00,
2013-01-08 19:07:00,34.9,25.3,28.92,NNE,22,0.0,0.0,68,0.00,,,0.00,open2300-1.11,2013-01-08 17:07:00,
2013-01-08 19:12:00,34.9,25.3,28.92,NNE,22,0.0,0.0,68,0.00,,,0.00,open2300-1.11,2013-01-08 17:12:00,
2013-01-08 19:17:00,34.9,25.3,28.92,NNE,22,0.0,0.0,68,0.00,,,0.00,open2300-1.11,2013-01-08 17:17:00,
2013-01-08 19:22:00,34.9,25.3,28.92,NNE,22,0.0,0.0,68,0.00,,,0.00,open2300-1.11,2013-01-08 17:22:00,
2013-01-08 19:27:00,34.9,25.3,28.92,NNE,22,0.0,0.0,68,0.00,,,0.00,open2300-1.11,2013-01-08 17:27:00,
2013-01-08 19:37:00,34.7,25.2,28.92,NNE,22,0.0,0.0,68,0.00,,,0.00,open2300-1.11,2013-01-08 17:37:00,
2013-01-08 19:42:00,34.7,25.2,28.92,NNE,22,0.0,0.0,68,0.00,,,0.00,open2300-1.11,2013-01-08 17:42:00,
2013-01-08 19:47:00,34.7,25.2,28.93,NNE,22,0.0,0.0,68,0.00,,,0.00,open2300-1.11,2013-01-08 17:47:00,
2013-01-08 19:57:00,34.5,24.6,28.93,NNE,22,0.0,0.0,67,0.00,,,0.00,open2300-1.11,2013-01-08 17:57:00,
2013-01-08 20:02:00,34.5,24.6,28.93,NNE,22,0.0,0.0,67,0.00,,,0.00,open2300-1.11,2013-01-08 18:02:00,
2013-01-08 20:12:00,34.5,24.6,28.94,NNE,22,0.0,0.0,67,0.00,,,0.00,open2300-1.11,2013-01-08 18:12:00,
2013-01-08 20:17:00,34.5,24.6,28.93,North,0,0.0,0.0,67,0.00,,,0.00,open2300-1.11,2013-01-08 18:17:00,
2013-01-08 20:22:00,34.5,24.6,28.93,North,0,0.0,0.0,67,0.00,,,0.00,open2300-1.11,2013-01-08 18:22:00,
2013-01-08 20:32:00,34.3,24.4,28.93,North,0,0.0,0.0,67,0.00,,,0.00,open2300-1.11,2013-01-08 18:32:00,
2013-01-08 20:37:00,34.3,24.4,28.93,North,0,0.0,0.0,67,0.00,,,0.00,open2300-1.11,2013-01-08 18:37:00,
2013-01-08 20:42:00,34.3,24.4,28.93,North,0,0.0,0.0,67,0.00,,,0.00,open2300-1.11,2013-01-08 18:42:00,
2013-01-08 20:47:00,34.3,24.4,28.93,North,0,0.0,0.0,67,0.00,,,0.00,open2300-1.11,2013-01-08 18:47:00,
2013-01-08 20:52:00,34.3,24.4,28.93,North,0,0.0,0.0,67,0.00,,,0.00,open2300-1.11,2013-01-08 18:52:00,
2013-01-08 21:02:00,34.2,24.6,28.93,North,0,0.0,0.0,68,0.00,,,0.00,open2300-1.11,2013-01-08 19:02:00,
2013-01-08 21:12:00,34.2,24.6,28.93,North,0,0.0,0.0,68,0.00,,,0.00,open2300-1.11,2013-01-08 19:12:00,
2013-01-08 21:17:00,34.2,24.6,28.93,NNW,337,0.0,0.0,68,0.00,,,0.00,open2300-1.11,2013-01-08 19:17:00,
2013-01-08 21:22:00,34.0,24.4,28.93,NNW,337,0.0,0.0,68,0.00,,,0.00,open2300-1.11,2013-01-08 19:22:00,
2013-01-08 21:27:00,34.0,24.4,28.93,NNW,337,0.0,0.0,68,0.00,,,0.00,open2300-1.11,2013-01-08 19:27:00,
2013-01-08 21:32:00,34.0,24.4,28.93,NNW,337,0.0,0.0,68,0.00,,,0.00,open2300-1.11,2013-01-08 19:32:00,
2013-01-08 21:37:00,34.0,24.4,28.92,NNW,337,0.0,0.0,68,0.00,,,0.00,open2300-1.11,2013-01-08 19:37:00,
2013-01-08 21:42:00,33.8,24.3,28.92,NNW,337,0.0,0.0,68,0.00,,,0.00,open2300-1.11,2013-01-08 19:42:00,
2013-01-08 21:47:00,33.8,24.3,28.92,NNW,337,0.0,0.0,68,0.00,,,0.00,open2300-1.11,2013-01-08 19:47:00,
2013-01-08 21:52:00,33.6,24.1,28.92,NNW,337,0.0,0.0,68,0.00,,,0.00,open2300-1.11,2013-01-08 19:52:00,
2013-01-08 22:02:00,33.6,24.1,28.92,NNW,337,0.0,0.0,68,0.00,,,0.00,open2300-1.11,2013-01-08 20:02:00,
2013-01-08 22:07:00,33.6,24.1,28.92,NNW,337,0.0,0.0,68,0.00,,,0.00,open2300-1.11,2013-01-08 20:07:00,
2013-01-08 22:17:00,33.8,24.3,28.92,NNW,337,0.0,0.0,68,0.00,,,0.00,open2300-1.11,2013-01-08 20:17:00,
2013-01-08 22:22:00,33.6,24.1,28.93,NNW,337,0.0,0.0,68,0.00,,,0.00,open2300-1.11,2013-01-08 20:22:00,
2013-01-08 22:27:00,33.6,24.1,28.92,NNW,337,0.0,0.0,68,0.00,,,0.00,open2300-1.11,2013-01-08 20:27:00,
2013-01-08 22:32:00,33.6,24.1,28.93,North,0,0.0,0.0,68,0.00,,,0.00,open2300-1.11,2013-01-08 20:32:00,
2013-01-08 22:37:00,33.6,24.1,28.92,SW,225,0.0,0.0,68,0.00,,,0.00,open2300-1.11,2013-01-08 20:37:00,
2013-01-08 22:47:00,33.6,23.7,28.92,SW,225,0.0,0.0,67,0.00,,,0.00,open2300-1.11,2013-01-08 20:47:00,
2013-01-08 22:57:00,33.6,23.4,28.92,SW,225,0.0,0.0,66,0.00,,,0.00,open2300-1.11,2013-01-08 20:57:00,
2013-01-08 23:02:00,33.6,23.4,28.92,SW,225,0.0,0.0,66,0.00,,,0.00,open2300-1.11,2013-01-08 21:02:00,
2013-01-08 23:07:00,33.6,23.4,28.92,SW,225,0.0,0.0,66,0.00,,,0.00,open2300-1.11,2013-01-08 21:07:00,
2013-01-08 23:12:00,33.6,23.4,28.92,SW,225,0.0,0.0,66,0.00,,,0.00,open2300-1.11,2013-01-08 21:12:00,
2013-01-08 23:17:00,33.6,23.4,28.92,SW,225,0.0,0.0,66,0.00,,,0.00,open2300-1.11,2013-01-08 21:17:00,
2013-01-08 23:22:00,33.6,23.4,28.92,SW,225,0.0,0.0,66,0.00,,,0.00,open2300-1.11,2013-01-08 21:22:00,
2013-01-08 23:27:00,33.6,23.4,28.92,SW,225,0.0,0.0,66,0.00,,,0.00,open2300-1.11,2013-01-08 21:27:00,
2013-01-08 23:32:00,33.6,23.4,28.92,SW,225,0.0,0.0,66,0.00,,,0.00,open2300-1.11,2013-01-08 21:32:00,
2013-01-08 23:37:00,33.6,23.4,28.92,SW,225,0.0,0.0,66,0.00,,,0.00,open2300-1.11,2013-01-08 21:37:00,
2013-01-08 23:42:00,33.4,23.2,28.92,SW,225,0.0,0.0,66,0.00,,,0.00,open2300-1.11,2013-01-08 21:42:00,
2013-01-08 23:47:00,33.4,23.2,28.92,SW,225,0.0,0.0,66,0.00,,,0.00,open2300-1.11,2013-01-08 21:47:00,
2013-01-08 23:52:00,33.6,23.2,28.92,SW,225,0.0,0.0,66,0.00,,,0.00,open2300-1.11,2013-01-08 21:52:00,
2013-01-08 23:57:00,33.4,23.2,28.92,SW,225,0.0,0.0,66,0.00,,,0.00,open2300-1.11,2013-01-08 21:57:00,